createdAt,value
2018-04-17T00:00:03.929Z,0.00
2018-04-17T00:01:03.770Z,0.00
2018-04-17T00:02:03.746Z,0.00
2018-04-17T00:03:03.596Z,0.00
2018-04-17T00:04:03.559Z,0.00
2018-04-17T00:05:03.454Z,0.00
2018-04-17T00:06:03.482Z,0.00
2018-04-17T00:07:03.264Z,0.00
2018-04-17T00:08:03.282Z,0.00
2018-04-17T00:09:03.113Z,0.00
2018-04-17T00:10:03.091Z,0.00
2018-04-17T00:11:02.971Z,0.00
2018-04-17T00:12:02.995Z,0.00
2018-04-17T00:13:02.792Z,0.00
2018-04-17T00:14:02.797Z,0.00
2018-04-17T00:15:02.637Z,0.00
2018-04-17T00:16:02.648Z,0.00
2018-04-17T00:17:02.477Z,0.00
2018-04-17T00:18:02.515Z,0.00
2018-04-17T00:19:02.338Z,0.00
2018-04-17T00:20:02.329Z,0.00
2018-04-17T00:21:02.187Z,0.00
2018-04-17T00:22:02.181Z,0.00
2018-04-17T00:23:02.007Z,0.00
2018-04-17T00:24:02.058Z,0.00
2018-04-17T00:25:01.848Z,0.00
2018-04-17T00:26:01.859Z,0.00
2018-04-17T00:27:01.751Z,0.00
2018-04-17T00:28:01.664Z,0.00
2018-04-17T00:29:01.530Z,0.00
2018-04-17T00:30:01.577Z,0.00
2018-04-17T00:31:01.360Z,0.00
2018-04-17T00:32:01.418Z,0.00
2018-04-17T00:33:01.210Z,0.00
2018-04-17T00:34:01.188Z,0.00
2018-04-17T00:35:01.057Z,0.00
2018-04-17T00:36:01.098Z,0.00
2018-04-17T00:37:00.908Z,0.00
2018-04-17T00:38:00.955Z,0.00
2018-04-17T00:39:00.760Z,0.00
2018-04-17T00:40:00.719Z,0.00
2018-04-17T00:41:00.564Z,0.00
2018-04-17T00:42:00.532Z,0.00
2018-04-17T00:43:00.429Z,0.00
2018-04-17T00:44:00.443Z,0.00
2018-04-17T00:45:00.252Z,0.00
2018-04-17T00:46:00.248Z,0.00
2018-04-17T00:47:00.119Z,0.00
2018-04-17T00:48:00.057Z,0.00
2018-04-17T00:48:59.934Z,0.00
2018-04-17T00:49:59.963Z,0.00
2018-04-17T00:50:59.781Z,0.00
2018-04-17T00:51:59.778Z,0.00
2018-04-17T00:52:59.645Z,0.00
2018-04-17T00:53:59.580Z,0.00
2018-04-17T00:54:59.459Z,0.00
2018-04-17T00:55:59.494Z,0.00
2018-04-17T00:56:59.330Z,0.00
2018-04-17T00:57:59.340Z,0.00
2018-04-17T00:58:59.145Z,0.00
2018-04-17T00:59:59.106Z,0.00
2018-04-17T01:00:58.982Z,0.00
2018-04-17T01:01:59.023Z,0.00
2018-04-17T01:02:58.833Z,0.00
2018-04-17T01:03:58.830Z,0.00
2018-04-17T01:04:58.671Z,0.00
2018-04-17T01:05:58.645Z,0.00
2018-04-17T01:06:58.505Z,0.00
2018-04-17T01:07:58.497Z,0.00
2018-04-17T01:08:58.344Z,0.00
2018-04-17T01:09:58.363Z,0.00
2018-04-17T01:10:58.186Z,0.00
2018-04-17T01:11:58.165Z,0.00
2018-04-17T01:12:58.046Z,0.00
2018-04-17T01:13:57.977Z,0.00
2018-04-17T01:14:57.991Z,0.00
2018-04-17T01:15:57.889Z,0.00
2018-04-17T01:16:57.702Z,0.00
2018-04-17T01:17:57.705Z,0.00
2018-04-17T01:18:57.568Z,0.00
2018-04-17T01:19:57.501Z,0.00
2018-04-17T01:20:57.392Z,0.00
2018-04-17T01:21:57.428Z,0.00
2018-04-17T01:22:57.255Z,0.00
2018-04-17T01:23:57.269Z,0.00
2018-04-17T01:24:57.067Z,0.00
2018-04-17T01:25:57.040Z,0.00
2018-04-17T01:26:56.908Z,0.00
2018-04-17T01:27:56.943Z,0.00
2018-04-17T01:28:56.778Z,0.00
2018-04-17T01:29:56.751Z,0.00
2018-04-17T01:30:56.591Z,0.00
2018-04-17T01:31:56.555Z,0.00
2018-04-17T01:32:56.432Z,0.00
2018-04-17T01:33:56.407Z,0.00
2018-04-17T01:34:56.287Z,0.00
2018-04-17T01:35:56.277Z,0.00
2018-04-17T01:36:56.112Z,0.00
2018-04-17T01:37:56.096Z,0.00
2018-04-17T01:38:55.983Z,0.00
2018-04-17T01:39:55.995Z,0.00
2018-04-17T01:40:55.789Z,0.00
2018-04-17T01:41:55.815Z,0.00
2018-04-17T01:42:55.637Z,0.00
2018-04-17T01:43:55.617Z,0.00
2018-04-17T01:44:55.508Z,0.00
2018-04-17T01:45:55.520Z,0.00
2018-04-17T01:46:55.319Z,0.00
2018-04-17T01:47:55.330Z,0.00
2018-04-17T01:48:55.154Z,0.00
2018-04-17T01:49:55.165Z,0.00
2018-04-17T01:50:55.103Z,0.00
2018-04-17T01:51:54.948Z,0.00
2018-04-17T01:52:54.837Z,0.00
2018-04-17T01:53:54.949Z,0.00
2018-04-17T01:54:54.701Z,0.00
2018-04-17T01:55:54.702Z,0.00
2018-04-17T01:56:54.525Z,0.00
2018-04-17T01:57:54.480Z,0.00
2018-04-17T01:58:54.357Z,0.00
2018-04-17T01:59:54.418Z,0.00
2018-04-17T02:00:54.202Z,0.00
2018-04-17T02:01:54.198Z,0.00
2018-04-17T02:02:54.047Z,0.00
2018-04-17T02:03:54.004Z,0.00
2018-04-17T02:04:53.898Z,0.00
2018-04-17T02:05:53.925Z,0.00
2018-04-17T02:06:53.723Z,0.00
2018-04-17T02:07:53.723Z,0.00
2018-04-17T02:08:53.563Z,0.00
2018-04-17T02:09:53.566Z,0.00
2018-04-17T02:10:53.480Z,0.00
2018-04-17T02:11:53.441Z,0.00
2018-04-17T02:12:53.239Z,0.00
2018-04-17T02:13:53.334Z,0.00
2018-04-17T02:14:53.125Z,0.00
2018-04-17T02:15:53.108Z,0.00
2018-04-17T02:16:52.930Z,0.00
2018-04-17T02:17:52.976Z,0.00
2018-04-17T02:18:52.772Z,0.00
2018-04-17T02:19:52.784Z,0.00
2018-04-17T02:20:52.627Z,0.00
2018-04-17T02:21:52.622Z,0.00
2018-04-17T02:22:52.458Z,0.00
2018-04-17T02:23:52.398Z,0.00
2018-04-17T02:24:52.291Z,0.00
2018-04-17T02:25:52.344Z,0.00
2018-04-17T02:26:52.145Z,0.00
2018-04-17T02:27:52.120Z,0.00
2018-04-17T02:28:51.964Z,0.00
2018-04-17T02:29:51.930Z,0.00
2018-04-17T02:30:51.871Z,0.00
2018-04-17T02:31:51.835Z,0.00
2018-04-17T02:32:51.652Z,0.00
2018-04-17T02:33:51.649Z,0.00
2018-04-17T02:34:51.486Z,0.00
2018-04-17T02:35:51.451Z,0.00
2018-04-17T02:36:51.343Z,0.00
2018-04-17T02:37:51.370Z,0.00
2018-04-17T02:38:51.169Z,0.00
2018-04-17T02:39:51.192Z,0.00
2018-04-17T02:40:51.000Z,0.00
2018-04-17T02:41:51.009Z,0.00
2018-04-17T02:42:50.861Z,0.00
2018-04-17T02:43:50.896Z,0.00
2018-04-17T02:44:50.684Z,0.00
2018-04-17T02:45:50.703Z,0.00
2018-04-17T02:46:50.541Z,0.00
2018-04-17T02:47:50.543Z,0.00
2018-04-17T02:48:50.363Z,0.00
2018-04-17T02:49:50.323Z,0.00
2018-04-17T02:50:50.204Z,0.00
2018-04-17T02:51:50.267Z,0.00
2018-04-17T02:52:50.039Z,0.00
2018-04-17T02:53:50.048Z,0.00
2018-04-17T02:54:49.879Z,0.00
2018-04-17T02:55:49.882Z,0.00
2018-04-17T02:56:49.720Z,0.00
2018-04-17T02:57:49.775Z,0.00
2018-04-17T02:58:49.575Z,0.00
2018-04-17T02:59:49.566Z,0.00
2018-04-17T03:00:49.397Z,0.00
2018-04-17T03:01:49.414Z,0.00
2018-04-17T03:02:49.244Z,0.00
2018-04-17T03:03:49.317Z,0.00
2018-04-17T03:04:49.076Z,0.00
2018-04-17T03:05:49.103Z,0.00
2018-04-17T03:06:48.983Z,0.00
2018-04-17T03:07:48.900Z,0.00
2018-04-17T03:08:48.808Z,0.00
2018-04-17T03:09:48.845Z,0.00
2018-04-17T03:10:48.601Z,0.00
2018-04-17T03:11:48.613Z,0.00
2018-04-17T03:12:48.464Z,0.00
2018-04-17T03:13:48.423Z,0.00
2018-04-17T03:14:48.273Z,0.00
2018-04-17T03:15:48.231Z,0.00
2018-04-17T03:16:48.119Z,0.00
2018-04-17T03:17:48.189Z,0.00
2018-04-17T03:18:47.956Z,0.00
2018-04-17T03:19:47.957Z,0.00
2018-04-17T03:20:47.805Z,0.00
2018-04-17T03:21:47.869Z,0.00
2018-04-17T03:22:47.671Z,0.00
2018-04-17T03:23:47.675Z,0.00
2018-04-17T03:24:47.477Z,0.00
2018-04-17T03:25:47.499Z,0.00
2018-04-17T03:26:47.317Z,0.00
2018-04-17T03:27:47.325Z,0.00
2018-04-17T03:28:47.157Z,0.00
2018-04-17T03:29:47.203Z,0.00
2018-04-17T03:30:46.991Z,0.00
2018-04-17T03:31:47.036Z,0.00
2018-04-17T03:32:46.857Z,0.00
2018-04-17T03:33:46.973Z,0.00
2018-04-17T03:34:46.674Z,0.00
2018-04-17T03:35:47.150Z,0.00
2018-04-17T03:36:46.518Z,0.00
2018-04-17T03:37:46.551Z,0.00
2018-04-17T03:38:46.375Z,0.00
2018-04-17T03:39:46.357Z,0.00
2018-04-17T03:40:46.197Z,0.00
2018-04-17T03:41:46.159Z,0.00
2018-04-17T03:42:46.030Z,0.00
2018-04-17T03:43:46.073Z,0.00
2018-04-17T03:44:45.884Z,0.00
2018-04-17T03:45:45.872Z,0.00
2018-04-17T03:46:45.707Z,0.00
2018-04-17T03:47:45.687Z,0.00
2018-04-17T03:48:45.611Z,0.00
2018-04-17T03:49:45.516Z,0.00
2018-04-17T03:50:45.394Z,0.00
2018-04-17T03:51:46.233Z,0.00
2018-04-17T03:52:45.231Z,0.00
2018-04-17T03:53:45.210Z,0.00
2018-04-17T03:54:45.059Z,0.00
2018-04-17T03:55:45.046Z,0.00
2018-04-17T03:56:44.892Z,0.00
2018-04-17T03:57:44.925Z,0.00
2018-04-17T03:58:44.730Z,0.00
2018-04-17T03:59:44.738Z,0.00
2018-04-17T04:00:44.593Z,0.00
2018-04-17T04:01:44.535Z,0.00
2018-04-17T04:02:44.469Z,0.00
2018-04-17T04:03:44.459Z,0.00
2018-04-17T04:04:44.253Z,4.00
2018-04-17T04:05:44.291Z,4.00
2018-04-17T04:06:44.102Z,0.00
2018-04-17T04:07:44.071Z,4.00
2018-04-17T04:08:43.936Z,4.00
2018-04-17T04:09:43.880Z,4.00
2018-04-17T04:10:43.769Z,8.00
2018-04-17T04:11:43.828Z,4.00
2018-04-17T04:12:43.615Z,4.00
2018-04-17T04:13:43.606Z,12.00
2018-04-17T04:14:43.441Z,12.00
2018-04-17T04:15:43.406Z,12.00
2018-04-17T04:16:43.306Z,16.00
2018-04-17T04:17:43.314Z,16.00
2018-04-17T04:18:43.127Z,20.00
2018-04-17T04:19:43.122Z,20.00
2018-04-17T04:20:42.968Z,28.00
2018-04-17T04:21:42.973Z,28.00
2018-04-17T04:22:42.913Z,32.00
2018-04-17T04:23:42.841Z,36.00
2018-04-17T04:24:42.646Z,44.00
2018-04-17T04:25:42.649Z,52.00
2018-04-17T04:26:42.494Z,56.00
2018-04-17T04:27:42.461Z,60.00
2018-04-17T04:28:42.317Z,72.00
2018-04-17T04:29:42.282Z,80.00
2018-04-17T04:30:42.163Z,84.00
2018-04-17T04:31:42.224Z,96.00
2018-04-17T04:32:41.992Z,104.00
2018-04-17T04:33:41.989Z,116.00
2018-04-17T04:34:41.842Z,124.00
2018-04-17T04:35:43.848Z,140.00
2018-04-17T04:36:41.698Z,148.00
2018-04-17T04:37:41.710Z,164.00
2018-04-17T04:38:41.506Z,176.00
2018-04-17T04:39:41.518Z,192.00
2018-04-17T04:40:41.353Z,204.00
2018-04-17T04:41:42.385Z,220.00
2018-04-17T04:42:41.187Z,236.00
2018-04-17T04:43:41.238Z,252.00
2018-04-17T04:44:41.085Z,268.00
2018-04-17T04:45:41.068Z,284.00
2018-04-17T04:46:40.892Z,300.00
2018-04-17T04:47:40.870Z,316.00
2018-04-17T04:48:40.704Z,336.00
2018-04-17T04:49:40.683Z,356.00
2018-04-17T04:50:40.548Z,372.00
2018-04-17T04:51:40.570Z,396.00
2018-04-17T04:52:40.403Z,416.00
2018-04-17T04:53:40.382Z,436.00
2018-04-17T04:54:40.289Z,456.00
2018-04-17T04:55:40.191Z,480.00
2018-04-17T04:56:40.075Z,500.00
2018-04-17T04:57:40.103Z,524.00
2018-04-17T04:58:39.894Z,544.00
2018-04-17T04:59:39.910Z,568.00
2018-04-17T05:00:39.727Z,592.00
2018-04-17T05:01:39.719Z,616.00
2018-04-17T05:02:39.584Z,640.00
2018-04-17T05:03:39.520Z,664.00
2018-04-17T05:04:39.413Z,684.00
2018-04-17T05:05:39.454Z,708.00
2018-04-17T05:06:39.249Z,728.00
2018-04-17T05:07:39.288Z,752.00
2018-04-17T05:08:39.088Z,780.00
2018-04-17T05:09:39.055Z,800.00
2018-04-17T05:10:38.920Z,824.00
2018-04-17T05:11:38.968Z,852.00
2018-04-17T05:12:38.785Z,876.00
2018-04-17T05:13:38.799Z,900.00
2018-04-17T05:14:38.610Z,920.00
2018-04-17T05:15:38.591Z,948.00
2018-04-17T05:16:38.450Z,968.00
2018-04-17T05:17:38.528Z,992.00
2018-04-17T05:18:38.283Z,1020.00
2018-04-17T05:19:38.301Z,1040.00
2018-04-17T05:20:38.127Z,1064.00
2018-04-17T05:21:38.111Z,1088.00
2018-04-17T05:22:37.958Z,1104.00
2018-04-17T05:23:37.958Z,1120.00
2018-04-17T05:24:37.795Z,1148.00
2018-04-17T05:25:37.833Z,1172.00
2018-04-17T05:26:37.632Z,1200.00
2018-04-17T05:27:37.642Z,1220.00
2018-04-17T05:28:37.485Z,1248.00
2018-04-17T05:29:37.441Z,1268.00
2018-04-17T05:30:37.315Z,1292.00
2018-04-17T05:31:37.351Z,1320.00
2018-04-17T05:32:37.163Z,1344.00
2018-04-17T05:33:37.210Z,1368.00
2018-04-17T05:34:37.015Z,1392.00
2018-04-17T05:35:36.979Z,1416.00
2018-04-17T05:36:36.843Z,1440.00
2018-04-17T05:37:36.778Z,1464.00
2018-04-17T05:38:36.682Z,1488.00
2018-04-17T05:39:36.695Z,1504.00
2018-04-17T05:40:36.507Z,1532.00
2018-04-17T05:43:18.700Z,1588.00
2018-04-17T05:44:18.746Z,1612.00
2018-04-17T05:45:18.525Z,1632.00
2018-04-17T05:46:18.521Z,1656.00
2018-04-17T05:47:18.378Z,1680.00
2018-04-17T05:48:18.333Z,1704.00
2018-04-17T05:49:18.225Z,1724.00
2018-04-17T05:50:18.333Z,1744.00
2018-04-17T05:51:18.043Z,1768.00
2018-04-17T05:52:18.046Z,1788.00
2018-04-17T05:53:17.877Z,1812.00
2018-04-17T05:54:17.891Z,1832.00
2018-04-17T05:55:17.745Z,1852.00
2018-04-17T05:56:17.784Z,1872.00
2018-04-17T05:57:17.581Z,1896.00
2018-04-17T05:58:17.566Z,1920.00
2018-04-17T05:59:17.411Z,1948.00
2018-04-17T06:00:17.383Z,1980.00
2018-04-17T06:01:17.246Z,2048.00
2018-04-17T06:02:17.287Z,2148.00
2018-04-17T06:03:17.083Z,2292.00
2018-04-17T06:04:17.144Z,2472.00
2018-04-17T06:05:17.012Z,2692.00
2018-04-17T06:06:16.907Z,2936.00
2018-04-17T06:07:16.763Z,3180.00
2018-04-17T06:08:16.726Z,3392.00
2018-04-17T06:09:16.618Z,3644.00
2018-04-17T06:10:16.653Z,3904.00
2018-04-17T06:11:16.440Z,4144.00
2018-04-17T06:12:16.426Z,4348.00
2018-04-17T06:13:16.272Z,4528.00
2018-04-17T06:14:16.287Z,4908.00
2018-04-17T06:15:16.110Z,5480.00
2018-04-17T06:16:16.170Z,5936.00
2018-04-17T06:17:15.951Z,6044.00
2018-04-17T06:18:15.956Z,6152.00
2018-04-17T06:19:15.795Z,6160.00
2018-04-17T06:20:15.806Z,6284.00
2018-04-17T06:21:15.636Z,6372.00
2018-04-17T06:22:15.676Z,6484.00
2018-04-17T06:23:15.557Z,6524.00
2018-04-17T06:24:15.507Z,6632.00
2018-04-17T06:25:15.352Z,6688.00
2018-04-17T06:26:15.417Z,6716.00
2018-04-17T06:27:15.166Z,6804.00
2018-04-17T06:28:15.215Z,6924.00
2018-04-17T06:29:15.026Z,6952.00
2018-04-17T06:30:15.042Z,7032.00
2018-04-17T06:31:14.843Z,7124.00
2018-04-17T06:32:14.824Z,7200.00
2018-04-17T06:33:14.690Z,7328.00
2018-04-17T06:34:14.726Z,7348.00
2018-04-17T06:35:14.544Z,7500.00
2018-04-17T06:36:14.550Z,7564.00
2018-04-17T06:37:14.378Z,7552.00
2018-04-17T06:38:14.345Z,7624.00
2018-04-17T06:39:14.215Z,7636.00
2018-04-17T06:40:14.196Z,7812.00
2018-04-17T06:41:14.061Z,7912.00
2018-04-17T06:42:14.164Z,7988.00
2018-04-17T06:43:13.904Z,8128.00
2018-04-17T06:44:13.873Z,8160.00
2018-04-17T06:45:13.773Z,8200.00
2018-04-17T06:46:13.817Z,8332.00
2018-04-17T06:47:13.607Z,8476.00
2018-04-17T06:48:13.593Z,8484.00
2018-04-17T06:49:13.454Z,8612.00
2018-04-17T06:50:13.405Z,8624.00
2018-04-17T06:51:13.313Z,8820.00
2018-04-17T06:52:13.309Z,8760.00
2018-04-17T06:53:13.125Z,8952.00
2018-04-17T06:54:13.125Z,9104.00
2018-04-17T06:55:12.971Z,9156.00
2018-04-17T06:56:12.959Z,9216.00
2018-04-17T06:57:12.823Z,9252.00
2018-04-17T06:58:12.841Z,9296.00
2018-04-17T06:59:12.706Z,9288.00
2018-04-17T07:00:12.647Z,9424.00
2018-04-17T07:01:12.523Z,9440.00
2018-04-17T07:02:12.563Z,9660.00
2018-04-17T07:03:12.357Z,9764.00
2018-04-17T07:04:12.397Z,9820.00
2018-04-17T07:05:12.218Z,10104.00
2018-04-17T07:06:12.214Z,10292.00
2018-04-17T07:07:12.043Z,10428.00
2018-04-17T07:08:12.096Z,10560.00
2018-04-17T07:09:11.892Z,10560.00
2018-04-17T07:10:11.897Z,10676.00
2018-04-17T07:11:11.760Z,10564.00
2018-04-17T07:12:11.706Z,10596.00
2018-04-17T07:13:11.585Z,10628.00
2018-04-17T07:14:11.614Z,10756.00
2018-04-17T07:15:11.452Z,10892.00
2018-04-17T07:16:11.460Z,10928.00
2018-04-17T07:17:11.285Z,10848.00
2018-04-17T07:18:11.228Z,10960.00
2018-04-17T07:19:11.119Z,10864.00
2018-04-17T07:20:11.145Z,10900.00
2018-04-17T07:21:10.990Z,11072.00
2018-04-17T07:22:10.978Z,11052.00
2018-04-17T07:23:10.816Z,11332.00
2018-04-17T07:24:10.870Z,11708.00
2018-04-17T07:25:10.666Z,12024.00
2018-04-17T07:26:10.677Z,12120.00
2018-04-17T07:27:10.538Z,11928.00
2018-04-17T07:28:10.604Z,11956.00
2018-04-17T07:29:10.374Z,12148.00
2018-04-17T07:31:52.221Z,12276.00
2018-04-17T07:32:52.233Z,12664.00
2018-04-17T07:33:52.056Z,12352.00
2018-04-17T07:34:52.095Z,12168.00
2018-04-17T07:35:51.913Z,12056.00
2018-04-17T07:36:51.975Z,12376.00
2018-04-17T07:37:51.769Z,12168.00
2018-04-17T07:38:51.709Z,12112.00
2018-04-17T07:39:51.600Z,12688.00
2018-04-17T07:40:51.669Z,13044.00
2018-04-17T07:41:51.457Z,13324.00
2018-04-17T07:42:51.468Z,14112.00
2018-04-17T07:43:51.304Z,15028.00
2018-04-17T07:44:51.367Z,15712.00
2018-04-17T07:45:51.153Z,16000.00
2018-04-17T07:46:51.146Z,16512.00
2018-04-17T07:47:51.056Z,16704.00
2018-04-17T07:48:50.951Z,16288.00
2018-04-17T07:49:50.873Z,15712.00
2018-04-17T07:50:50.878Z,14728.00
2018-04-17T07:51:50.714Z,13920.00
2018-04-17T07:52:50.702Z,12936.00
2018-04-17T07:53:50.557Z,12364.00
2018-04-17T07:54:50.597Z,12108.00
2018-04-17T07:55:50.414Z,12188.00
2018-04-17T07:56:50.396Z,12180.00
2018-04-17T07:57:50.291Z,12140.00
2018-04-17T07:58:50.308Z,12100.00
2018-04-17T07:59:50.272Z,12056.00
2018-04-17T08:00:50.119Z,12068.00
2018-04-17T08:01:49.978Z,12112.00
2018-04-17T08:02:49.968Z,12136.00
2018-04-17T08:03:49.845Z,12280.00
2018-04-17T08:04:49.840Z,12292.00
2018-04-17T08:05:49.667Z,12292.00
2018-04-17T08:06:49.636Z,12192.00
2018-04-17T08:07:49.575Z,12308.00
2018-04-17T08:08:49.585Z,12016.00
2018-04-17T08:09:49.435Z,12164.00
2018-04-17T08:10:49.366Z,11636.00
2018-04-17T08:11:49.240Z,12300.00
2018-04-17T08:12:49.270Z,12352.00
2018-04-17T08:13:49.097Z,12276.00
2018-04-17T08:14:49.159Z,12560.00
2018-04-17T08:15:48.946Z,12552.00
2018-04-17T08:16:48.992Z,12432.00
2018-04-17T08:17:48.804Z,12516.00
2018-04-17T08:18:48.848Z,12520.00
2018-04-17T08:19:48.669Z,12628.00
2018-04-17T08:20:48.607Z,12608.00
2018-04-17T08:21:48.516Z,12868.00
2018-04-17T08:22:48.519Z,12920.00
2018-04-17T08:23:48.366Z,13036.00
2018-04-17T08:24:48.371Z,12956.00
2018-04-17T08:25:48.215Z,12900.00
2018-04-17T08:26:48.249Z,13112.00
2018-04-17T08:27:48.072Z,13096.00
2018-04-17T08:28:48.045Z,13100.00
2018-04-17T08:29:47.949Z,13200.00
2018-04-17T08:30:47.958Z,13148.00
2018-04-17T08:31:47.790Z,13152.00
2018-04-17T08:32:47.792Z,13176.00
2018-04-17T08:33:47.648Z,13308.00
2018-04-17T08:34:47.722Z,13256.00
2018-04-17T08:35:47.500Z,13380.00
2018-04-17T08:36:47.500Z,13448.00
2018-04-17T08:37:47.369Z,13492.00
2018-04-17T08:38:47.407Z,13436.00
2018-04-17T08:39:47.234Z,13392.00
2018-04-17T08:40:47.228Z,13360.00
2018-04-17T08:41:47.089Z,13360.00
2018-04-17T08:42:47.197Z,13256.00
2018-04-17T08:43:46.948Z,13300.00
2018-04-17T08:44:46.932Z,13204.00
2018-04-17T08:45:46.819Z,13188.00
2018-04-17T08:46:46.848Z,13232.00
2018-04-17T08:47:46.659Z,13192.00
2018-04-17T08:48:46.650Z,13200.00
2018-04-17T08:49:46.568Z,13200.00
2018-04-17T08:50:46.587Z,13320.00
2018-04-17T08:51:46.380Z,13284.00
2018-04-17T08:52:46.472Z,13284.00
2018-04-17T08:53:46.233Z,13468.00
2018-04-17T08:54:46.272Z,13288.00
2018-04-17T08:55:46.144Z,13392.00
2018-04-17T08:56:46.120Z,13392.00
2018-04-17T08:57:45.956Z,13480.00
2018-04-17T08:58:46.106Z,13536.00
2018-04-17T08:59:45.837Z,13584.00
2018-04-17T09:00:45.814Z,13688.00
2018-04-17T09:01:45.731Z,13736.00
2018-04-17T09:02:45.723Z,13680.00
2018-04-17T09:03:45.570Z,13680.00
2018-04-17T09:04:45.518Z,13324.00
2018-04-17T09:05:45.477Z,13724.00
2018-04-17T09:06:45.432Z,13800.00
2018-04-17T09:07:45.297Z,13880.00
2018-04-17T09:08:45.343Z,13960.00
2018-04-17T09:09:45.128Z,14152.00
2018-04-17T09:10:45.153Z,14220.00
2018-04-17T09:11:45.887Z,14296.00
2018-04-17T09:12:44.956Z,14364.00
2018-04-17T09:13:44.864Z,14452.00
2018-04-17T09:14:44.891Z,14540.00
2018-04-17T09:15:44.726Z,14592.00
2018-04-17T09:16:44.724Z,14392.00
2018-04-17T09:17:44.600Z,14092.00
2018-04-17T09:18:44.603Z,14252.00
2018-04-17T09:19:44.454Z,14496.00
2018-04-17T09:20:44.504Z,15124.00
2018-04-17T09:21:44.333Z,15296.00
2018-04-17T09:22:44.347Z,14740.00
2018-04-17T09:23:44.182Z,15112.00
2018-04-17T09:24:44.233Z,15872.00
2018-04-17T09:25:44.062Z,14964.00
2018-04-17T09:26:44.039Z,14916.00
2018-04-17T09:27:44.000Z,14600.00
2018-04-17T09:28:43.948Z,14688.00
2018-04-17T09:29:43.818Z,14156.00
2018-04-17T09:30:43.843Z,14856.00
2018-04-17T09:31:43.644Z,15404.00
2018-04-17T09:32:43.698Z,15432.00
2018-04-17T09:33:43.527Z,15872.00
2018-04-17T09:34:43.577Z,16160.00
2018-04-17T09:35:43.398Z,15712.00
2018-04-17T09:36:43.383Z,14248.00
2018-04-17T09:37:43.282Z,13360.00
2018-04-17T09:38:43.288Z,14640.00
2018-04-17T09:39:43.113Z,16000.00
2018-04-17T09:40:43.097Z,16672.00
2018-04-17T09:41:43.018Z,16768.00
2018-04-17T09:42:43.008Z,17184.00
2018-04-17T09:43:42.883Z,17728.00
2018-04-17T09:44:42.816Z,18240.00
2018-04-17T09:45:42.730Z,18336.00
2018-04-17T09:46:42.832Z,18336.00
2018-04-17T09:47:42.598Z,18240.00
2018-04-17T09:48:42.557Z,18048.00
2018-04-17T09:49:42.450Z,16800.00
2018-04-17T09:50:42.458Z,16640.00
2018-04-17T09:51:42.309Z,16512.00
2018-04-17T09:52:42.370Z,17504.00
2018-04-17T09:53:42.201Z,16960.00
2018-04-17T09:54:42.161Z,17472.00
2018-04-17T09:55:42.043Z,18944.00
2018-04-17T09:56:41.997Z,19648.00
2018-04-17T09:57:41.920Z,19872.00
2018-04-17T09:58:41.929Z,20160.00
2018-04-17T09:59:41.770Z,19424.00
2018-04-17T10:00:41.789Z,18912.00
2018-04-17T10:01:41.636Z,17120.00
2018-04-17T10:02:41.577Z,17536.00
2018-04-17T10:03:41.548Z,18496.00
2018-04-17T10:04:41.488Z,18560.00
2018-04-17T10:05:41.418Z,19168.00
2018-04-17T10:06:41.325Z,19488.00
2018-04-17T10:07:41.237Z,20032.00
2018-04-17T10:08:41.334Z,20576.00
2018-04-17T10:09:41.129Z,20640.00
2018-04-17T10:10:41.145Z,20800.00
2018-04-17T10:11:41.094Z,20832.00
2018-04-17T10:12:40.916Z,20736.00
2018-04-17T10:13:40.852Z,21120.00
2018-04-17T10:14:40.869Z,21088.00
2018-04-17T10:15:40.715Z,19296.00
2018-04-17T10:16:40.659Z,19552.00
2018-04-17T10:17:40.578Z,21536.00
2018-04-17T10:18:40.528Z,20928.00
2018-04-17T10:19:40.476Z,21216.00
2018-04-17T10:20:41.355Z,20960.00
2018-04-17T10:21:40.349Z,22496.00
2018-04-17T10:22:40.310Z,22784.00
2018-04-17T10:23:40.183Z,22560.00
2018-04-17T10:24:40.244Z,22688.00
2018-04-17T10:25:40.061Z,22944.00
2018-04-17T10:26:40.024Z,22656.00
2018-04-17T10:27:39.988Z,22624.00
2018-04-17T10:28:39.945Z,22528.00
2018-04-17T10:29:39.825Z,22912.00
2018-04-17T10:30:39.741Z,23744.00
2018-04-17T10:31:39.686Z,23392.00
2018-04-17T10:32:39.649Z,23424.00
2018-04-17T10:33:39.630Z,23776.00
2018-04-17T10:34:39.500Z,24000.00
2018-04-17T10:35:39.407Z,23904.00
2018-04-17T10:36:39.456Z,23936.00
2018-04-17T10:37:39.275Z,24320.00
2018-04-17T10:38:39.282Z,24416.00
2018-04-17T10:39:39.186Z,24480.00
2018-04-17T10:40:39.094Z,25760.00
2018-04-17T10:41:39.023Z,31040.00
2018-04-17T10:42:38.959Z,58848.00
2018-04-17T10:43:38.890Z,92736.00
2018-04-17T10:44:38.917Z,118080.00
2018-04-17T10:45:38.750Z,128960.00
2018-04-17T10:46:39.759Z,110144.00
2018-04-17T10:47:38.670Z,98048.00
2018-04-17T10:48:38.630Z,97632.00
2018-04-17T10:49:38.517Z,92928.00
2018-04-17T10:50:38.553Z,84320.00
2018-04-17T10:51:38.376Z,92384.00
2018-04-17T10:52:38.379Z,85184.00
2018-04-17T10:53:38.225Z,86592.00
2018-04-17T10:54:38.182Z,86464.00
2018-04-17T10:55:38.096Z,85536.00
2018-04-17T10:56:38.109Z,84512.00
2018-04-17T10:57:37.984Z,88576.00
2018-04-17T10:58:37.943Z,87136.00
2018-04-17T10:59:37.832Z,88160.00
2018-04-17T11:00:37.787Z,86784.00
2018-04-17T11:01:37.695Z,86912.00
2018-04-17T11:02:37.737Z,88544.00
2018-04-17T11:03:37.595Z,90464.00
2018-04-17T11:04:37.618Z,87136.00
2018-04-17T11:05:37.432Z,88704.00
2018-04-17T11:06:37.421Z,86688.00
2018-04-17T11:07:37.320Z,84832.00
2018-04-17T11:08:37.338Z,90528.00
2018-04-17T11:09:37.173Z,90400.00
2018-04-17T11:10:37.136Z,86528.00
2018-04-17T11:11:37.053Z,93088.00
2018-04-17T11:12:37.097Z,95328.00
2018-04-17T11:13:36.931Z,95616.00
2018-04-17T11:14:37.114Z,96288.00
2018-04-17T11:15:36.783Z,92896.00
2018-04-17T11:16:36.767Z,93248.00
2018-04-17T11:17:36.658Z,90368.00
2018-04-17T11:18:36.741Z,91104.00
2018-04-17T11:19:36.535Z,85600.00
2018-04-17T11:20:36.589Z,84928.00
2018-04-17T11:21:36.412Z,82592.00
2018-04-17T11:22:36.719Z,77984.00
2018-04-17T11:23:36.274Z,88640.00
2018-04-17T11:24:36.856Z,91424.00
2018-04-17T11:25:36.140Z,90336.00
2018-04-17T11:26:36.126Z,87968.00
2018-04-17T11:27:36.000Z,87136.00
2018-04-17T11:28:36.024Z,89696.00
2018-04-17T11:29:35.876Z,91520.00
2018-04-17T11:30:35.849Z,84992.00
2018-04-17T11:31:35.737Z,85312.00
2018-04-17T11:32:35.770Z,86720.00
2018-04-17T11:33:35.669Z,88672.00
2018-04-17T11:34:35.743Z,90240.00
2018-04-17T11:35:35.508Z,88608.00
2018-04-17T11:36:35.574Z,90112.00
2018-04-17T11:37:35.340Z,91104.00
2018-04-17T11:38:35.412Z,89600.00
2018-04-17T11:39:35.244Z,87904.00
2018-04-17T11:40:35.192Z,85920.00
2018-04-17T11:41:35.088Z,90016.00
2018-04-17T11:42:35.104Z,89408.00
2018-04-17T11:43:34.956Z,92608.00
2018-04-17T11:44:34.901Z,90272.00
2018-04-17T11:45:34.810Z,87520.00
2018-04-17T11:46:34.790Z,86912.00
2018-04-17T11:47:34.705Z,88448.00
2018-04-17T11:48:34.666Z,86528.00
2018-04-17T11:49:34.566Z,87968.00
2018-04-17T11:50:34.516Z,91104.00
2018-04-17T11:51:34.427Z,90432.00
2018-04-17T11:52:34.372Z,88704.00
2018-04-17T11:53:34.289Z,88800.00
2018-04-17T11:54:34.248Z,88288.00
2018-04-17T11:55:34.171Z,88160.00
2018-04-17T11:56:34.103Z,93664.00
2018-04-17T11:57:34.053Z,91776.00
2018-04-17T11:58:33.985Z,86880.00
2018-04-17T11:59:33.923Z,88864.00
2018-04-17T12:00:33.848Z,88416.00
2018-04-17T12:01:33.826Z,71936.00
2018-04-17T12:02:33.741Z,26912.00
2018-04-17T12:03:33.636Z,10572.00
2018-04-17T12:04:33.697Z,9636.00
2018-04-17T12:05:33.506Z,9424.00
2018-04-17T12:06:33.444Z,9168.00
2018-04-17T12:07:33.496Z,8976.00
2018-04-17T12:08:33.316Z,8888.00
2018-04-17T12:09:33.227Z,8712.00
2018-04-17T12:10:33.169Z,8388.00
2018-04-17T12:11:33.113Z,8532.00
2018-04-17T12:12:33.057Z,8504.00
2018-04-17T12:13:32.947Z,8308.00
2018-04-17T12:14:32.901Z,8252.00
2018-04-17T12:15:32.840Z,8256.00
2018-04-17T12:16:32.798Z,8592.00
2018-04-17T12:17:32.659Z,9040.00
2018-04-17T12:18:32.610Z,9876.00
2018-04-17T12:19:32.527Z,9492.00
2018-04-17T12:20:32.448Z,9624.00
2018-04-17T12:21:32.398Z,9300.00
2018-04-17T12:22:32.315Z,8700.00
2018-04-17T12:23:32.228Z,8228.00
2018-04-17T12:24:32.207Z,8852.00